Time;durP1;ratioP1;P1;durP2;ratioP2;P2;SDS_P1;SDS_P2;PMS_P1;PMS_P2;Temp;Humidity;BMP_temperature;BMP_pressure;BME280_temperature;BME280_humidity;BME280_pressure;Samples;Min_cycle;Max_cycle;Signal;HPM_P1;HPM_P2
2021/12/20 00:00:48;;;;;;;12.70;7.37;;;;;;;4.64;62.85;102229.16;5082328;28;20180;-72
2021/12/20 00:03:14;;;;;;;10.13;5.53;;;;;;;4.48;62.54;102229.03;5081796;28;20264;-74
2021/12/20 00:05:40;;;;;;;9.63;4.40;;;;;;;4.76;62.32;102217.72;5081888;28;20173;-73
2021/12/20 00:08:05;;;;;;;10.50;4.33;;;;;;;4.52;62.11;102215.53;5081639;28;20431;-77
2021/12/20 00:10:30;;;;;;;7.37;4.50;;;;;;;4.56;62.63;102209.72;5082171;28;20176;-75
2021/12/20 00:12:56;;;;;;;9.70;5.03;;;;;;;4.55;62.25;102205.38;5081740;28;20576;-75
2021/12/20 00:15:21;;;;;;;11.20;4.93;;;;;;;4.43;62.32;102217.56;5088372;28;20199;-75
2021/12/20 00:17:46;;;;;;;11.10;5.40;;;;;;;4.37;62.45;102218.97;5092576;28;20172;-73
2021/12/20 00:20:12;;;;;;;5.63;4.37;;;;;;;4.34;61.70;102216.22;5089664;28;20537;-73
2021/12/20 00:22:39;;;;;;;11.43;4.60;;;;;;;6.63;80.90;102205.25;5072924;28;20192;-63
2021/12/20 00:25:05;;;;;;;6.80;4.60;;;;;;;12.29;66.86;102179.59;5061071;28;20495;-63
2021/12/20 00:27:30;;;;;;;7.70;4.20;;;;;;;12.22;57.53;102178.56;5062741;28;20688;-63
2021/12/20 00:29:56;;;;;;;9.47;4.93;;;;;;;7.49;52.15;102192.00;5062274;28;20386;-66
2021/12/20 00:32:22;;;;;;;7.20;4.17;;;;;;;6.24;55.80;102205.91;5061189;28;20177;-67
2021/12/20 00:34:47;;;;;;;11.70;5.13;;;;;;;5.35;57.27;102201.19;5060531;28;20220;-67
2021/12/20 00:42:42;;;;;;;6.90;4.17;;;;;;;4.58;59.86;102217.56;5061639;28;20676;-66
2021/12/20 00:45:08;;;;;;;9.07;4.73;;;;;;;4.84;59.41;102211.28;5061021;28;20416;-67
2021/12/20 00:47:34;;;;;;;8.57;4.87;;;;;;;4.25;61.09;102231.16;5061049;28;20186;-68
2021/12/20 00:49:59;;;;;;;11.33;4.87;;;;;;;4.30;60.64;102232.34;5061648;28;20416;-68
2021/12/20 00:52:25;;;;;;;11.83;3.90;;;;;;;4.21;60.78;102243.00;5060966;28;20293;-68
2021/12/20 00:54:50;;;;;;;9.83;4.90;;;;;;;4.13;61.36;102238.19;5060850;28;20221;-68
2021/12/20 00:57:16;;;;;;;7.50;5.00;;;;;;;4.14;61.24;102237.34;5061477;28;20416;-68
2021/12/20 00:59:41;;;;;;;9.70;4.73;;;;;;;3.94;62.08;102229.31;5061023;28;20479;-68
2021/12/20 01:02:06;;;;;;;10.13;5.10;;;;;;;3.95;62.36;102236.28;5061289;28;20223;-68
2021/12/20 01:04:31;;;;;;;11.23;4.87;;;;;;;3.98;62.62;102239.03;5070812;28;20180;-68
2021/12/20 01:06:57;;;;;;;9.17;5.20;;;;;;;3.98;62.24;102243.31;5073256;28;20169;-67
2021/12/20 01:09:22;;;;;;;7.37;4.70;;;;;;;4.04;62.31;102241.09;5067552;28;20177;-67
2021/12/20 01:11:52;;;;;;;9.90;4.80;;;;;;;3.78;62.26;102258.44;5071182;28;20174;-68
2021/12/20 01:14:23;;;;;;;7.17;4.27;;;;;;;4.00;62.59;102244.28;5063201;28;20173;-66
2021/12/20 01:16:49;;;;;;;9.13;5.30;;;;;;;3.91;62.45;102257.53;5061037;28;20420;-68
2021/12/20 01:19:14;;;;;;;8.93;5.00;;;;;;;3.92;63.17;102253.25;5060732;28;20416;-67
2021/12/20 01:21:40;;;;;;;8.87;5.27;;;;;;;3.79;63.18;102249.00;5060836;28;20423;-68
2021/12/20 01:24:05;;;;;;;6.77;4.23;;;;;;;3.60;63.24;102249.56;5060657;28;20594;-69
2021/12/20 01:26:30;;;;;;;11.57;5.67;;;;;;;3.67;63.64;102252.63;5062574;28;20212;-67
2021/12/20 01:28:56;;;;;;;8.03;4.90;;;;;;;3.65;65.56;102250.75;5072227;28;20209;-67
2021/12/20 01:31:21;;;;;;;8.10;4.60;;;;;;;3.75;63.47;102252.19;5071248;28;20188;-67
2021/12/20 01:33:47;;;;;;;13.47;5.20;;;;;;;3.77;63.62;102255.78;5064670;28;20280;-68
2021/12/20 01:36:12;;;;;;;12.60;6.47;;;;;;;4.02;63.78;102250.44;5060327;28;20205;-67
2021/12/20 01:38:37;;;;;;;7.87;4.70;;;;;;;4.05;62.47;102242.88;5060858;28;20539;-67
2021/12/20 01:41:03;;;;;;;10.07;4.70;;;;;;;3.99;62.87;102240.81;5059968;28;20566;-67
2021/12/20 01:43:29;;;;;;;7.40;4.50;;;;;;;3.94;62.28;102247.38;5059928;28;20439;-67
2021/12/20 01:45:54;;;;;;;10.47;4.97;;;;;;;3.86;62.61;102246.03;5060291;28;20173;-67
2021/12/20 01:48:21;;;;;;;8.33;4.60;;;;;;;3.76;63.40;102252.31;5060113;28;20182;-67
2021/12/20 01:51:14;;;;;;;7.00;4.40;;;;;;;3.87;62.71;102250.41;5060020;28;20216;-67
2021/12/20 01:53:37;;;;;;;9.60;5.13;;;;;;;3.69;63.49;102248.47;5059611;28;20421;-67
2021/12/20 01:56:03;;;;;;;13.67;4.43;;;;;;;3.72;62.79;102247.72;5059652;28;20463;-68
2021/12/20 01:58:29;;;;;;;8.30;3.87;;;;;;;3.63;62.89;102255.81;5059086;28;20412;-67
2021/12/20 02:03:40;;;;;;;9.40;4.47;;;;;;;3.72;62.57;102245.16;5059536;28;20451;-68
2021/12/20 02:06:11;;;;;;;10.27;4.63;;;;;;;3.91;61.87;102243.72;5059649;28;20841;-67
2021/12/20 02:08:37;;;;;;;6.17;3.90;;;;;;;3.63;62.39;102235.16;5058905;28;20439;-67
2021/12/20 02:11:09;;;;;;;12.57;7.50;;;;;;;3.65;63.62;102246.50;5059762;28;20447;-66
2021/12/20 02:13:34;;;;;;;7.07;4.07;;;;;;;3.75;62.46;102249.63;5058643;28;20454;-66
2021/12/20 02:16:00;;;;;;;9.60;3.87;;;;;;;3.76;62.75;102247.16;5058638;28;20452;-67
2021/12/20 02:18:26;;;;;;;7.53;4.40;;;;;;;3.41;63.06;102237.19;5059704;28;20188;-66
2021/12/20 02:20:51;;;;;;;6.70;3.90;;;;;;;3.70;63.24;102249.34;5059398;28;20169;-67
2021/12/20 02:23:17;;;;;;;10.67;4.83;;;;;;;3.61;63.26;102247.06;5059090;28;20431;-67
2021/12/20 02:25:42;;;;;;;9.53;5.10;;;;;;;3.79;62.04;102251.59;5059765;28;20197;-67
2021/12/20 02:28:10;;;;;;;7.43;5.03;;;;;;;3.86;61.92;102240.88;5059133;28;20173;-67
2021/12/20 02:38:46;;;;;;;10.10;4.83;;;;;;;3.80;61.78;102231.06;5060670;28;20423;-66
2021/12/20 02:41:21;;;;;;;5.80;3.50;;;;;;;3.62;61.96;102235.97;5062748;28;20470;-68
2021/12/20 02:43:54;;;;;;;5.03;4.07;;;;;;;3.55;62.03;102233.81;5061073;28;20419;-68
2021/12/20 02:49:04;;;;;;;6.80;3.80;;;;;;;3.67;62.05;102226.81;5059020;28;20416;-67
2021/12/20 02:51:30;;;;;;;7.77;4.10;;;;;;;3.63;61.98;102230.00;5058694;28;20498;-68
2021/12/20 02:53:56;;;;;;;7.60;3.80;;;;;;;3.62;62.64;102235.09;5058621;28;20199;-67
2021/12/20 02:56:22;;;;;;;11.20;4.50;;;;;;;3.67;61.40;102239.72;5058688;28;20590;-67
2021/12/20 02:58:47;;;;;;;6.63;4.00;;;;;;;3.67;61.87;102239.72;5058429;28;20415;-67
2021/12/20 03:01:13;;;;;;;7.30;3.37;;;;;;;3.65;61.97;102236.19;5058609;28;20169;-67
2021/12/20 03:03:39;;;;;;;7.43;3.90;;;;;;;3.51;61.40;102245.59;5058401;28;20169;-68
2021/12/20 03:06:19;;;;;;;8.80;4.20;;;;;;;3.56;61.83;102253.66;5059028;28;20158;-67
2021/12/20 03:08:48;;;;;;;4.73;3.13;;;;;;;3.62;61.45;102253.13;5057622;28;20416;-67
2021/12/20 03:11:14;;;;;;;9.67;4.47;;;;;;;3.71;61.25;102238.25;5057864;28;20404;-67
2021/12/20 03:13:40;;;;;;;5.90;3.70;;;;;;;3.54;61.42;102235.50;5058760;28;20416;-67
2021/12/20 03:16:05;;;;;;;11.00;4.10;;;;;;;3.46;61.69;102238.38;5062563;28;20445;-67
2021/12/20 03:18:31;;;;;;;5.87;3.70;;;;;;;3.41;62.02;102232.97;5061696;28;20661;-69
2021/12/20 03:20:56;;;;;;;4.63;3.60;;;;;;;3.36;62.27;102239.50;5062353;28;20559;-67
2021/12/20 03:23:22;;;;;;;8.23;3.80;;;;;;;3.67;60.98;102244.00;5058761;28;20177;-68
2021/12/20 03:25:48;;;;;;;9.43;4.47;;;;;;;3.44;61.01;102256.34;5059389;28;20161;-67
2021/12/20 03:28:14;;;;;;;9.10;4.47;;;;;;;3.40;61.65;102250.88;5058669;28;20169;-67
2021/12/20 03:30:39;;;;;;;7.03;3.80;;;;;;;3.57;61.23;102249.38;5058125;28;20412;-67
2021/12/20 03:33:04;;;;;;;10.03;4.13;;;;;;;3.39;61.88;102251.69;5058958;28;20225;-67
2021/12/20 03:35:30;;;;;;;6.13;4.00;;;;;;;3.31;61.63;102253.78;5058415;28;20239;-67
2021/12/20 03:37:56;;;;;;;7.43;3.50;;;;;;;3.39;61.76;102246.53;5058498;28;20173;-68
2021/12/20 03:40:21;;;;;;;5.53;3.80;;;;;;;3.30;62.10;102240.00;5058855;28;20182;-67
2021/12/20 03:42:46;;;;;;;12.50;4.37;;;;;;;3.58;61.84;102231.41;5060855;28;20177;-67
2021/12/20 03:45:14;;;;;;;6.63;3.80;;;;;;;3.44;62.46;102235.72;5060868;28;20212;-69
2021/12/20 03:47:40;;;;;;;8.63;4.03;;;;;;;3.29;62.21;102243.38;5058262;28;20165;-67
2021/12/20 03:50:07;;;;;;;8.30;4.10;;;;;;;3.19;62.88;102249.63;5058423;28;20420;-67
2021/12/20 03:52:32;;;;;;;7.17;4.00;;;;;;;3.05;62.29;102250.41;5057867;28;20806;-67
2021/12/20 03:54:59;;;;;;;7.30;4.30;;;;;;;2.92;62.83;102243.56;5058718;28;20422;-68
2021/12/20 03:57:24;;;;;;;6.43;4.00;;;;;;;2.81;63.59;102247.13;5058111;28;20508;-67
2021/12/20 03:59:51;;;;;;;6.77;4.10;;;;;;;3.24;62.63;102249.03;5057984;28;20426;-67
2021/12/20 04:02:19;;;;;;;8.03;3.73;;;;;;;3.23;62.03;102250.69;5058160;28;20512;-67
2021/12/20 04:04:44;;;;;;;9.87;3.90;;;;;;;3.30;61.77;102246.81;5057919;28;20692;-68
2021/12/20 04:07:09;;;;;;;6.87;3.80;;;;;;;3.27;61.89;102238.91;5057920;28;20419;-67
2021/12/20 04:09:35;;;;;;;7.87;4.40;;;;;;;3.25;63.20;102238.81;5058353;28;20197;-67
2021/12/20 04:12:00;;;;;;;4.43;3.47;;;;;;;3.23;61.43;102236.94;5057771;28;20212;-66
2021/12/20 04:14:25;;;;;;;5.43;3.97;;;;;;;3.26;61.17;102247.44;5057649;28;20177;-67
2021/12/20 04:16:51;;;;;;;6.33;3.53;;;;;;;3.33;61.19;102253.09;5058054;28;20170;-68
2021/12/20 04:19:16;;;;;;;6.30;3.83;;;;;;;3.19;61.55;102251.31;5057703;28;20531;-68
2021/12/20 04:21:41;;;;;;;5.23;3.30;;;;;;;3.30;60.72;102254.56;5060736;28;20220;-67
2021/12/20 04:24:06;;;;;;;9.30;3.70;;;;;;;3.23;61.63;102253.28;5061871;28;20174;-68
2021/12/20 04:26:32;;;;;;;6.90;3.17;;;;;;;3.27;60.39;102251.81;5060754;28;20208;-67
2021/12/20 04:28:57;;;;;;;8.80;3.73;;;;;;;3.34;60.71;102247.16;5061350;28;20314;-67
2021/12/20 04:31:23;;;;;;;6.60;3.40;;;;;;;3.26;60.54;102255.16;5061928;28;20185;-67
2021/12/20 04:33:48;;;;;;;7.10;3.00;;;;;;;3.32;60.15;102259.03;5061247;28;20186;-68
2021/12/20 04:36:14;;;;;;;6.93;3.90;;;;;;;3.09;61.36;102257.56;5061304;28;20239;-68
2021/12/20 04:38:40;;;;;;;6.70;3.70;;;;;;;3.18;61.31;102249.50;5062347;28;20177;-67
2021/12/20 04:41:05;;;;;;;5.07;3.50;;;;;;;3.26;60.85;102252.59;5064053;28;20461;-66
2021/12/20 04:43:30;;;;;;;5.73;3.50;;;;;;;3.31;60.37;102252.06;5062524;28;20180;-67
2021/12/20 04:45:55;;;;;;;5.63;3.77;;;;;;;3.32;60.31;102259.03;5061847;28;20235;-67
2021/12/20 04:48:21;;;;;;;6.13;3.40;;;;;;;3.28;60.62;102258.75;5060401;28;20261;-67
2021/12/20 04:50:46;;;;;;;6.47;3.50;;;;;;;3.26;60.95;102262.91;5061058;28;20177;-68
2021/12/20 04:53:12;;;;;;;6.37;3.87;;;;;;;3.16;60.23;102262.31;5060822;28;20225;-68
2021/12/20 04:55:37;;;;;;;4.50;3.47;;;;;;;3.40;60.53;102261.19;5061004;28;20571;-67
2021/12/20 04:58:05;;;;;;;8.20;4.03;;;;;;;3.16;61.13;102261.41;5061755;28;20173;-68
2021/12/20 05:00:33;;;;;;;5.30;3.70;;;;;;;3.32;60.56;102258.16;5061550;28;20273;-67
2021/12/20 05:02:59;;;;;;;4.60;3.23;;;;;;;3.30;59.90;102262.28;5062096;28;20485;-67
2021/12/20 05:05:24;;;;;;;5.40;3.27;;;;;;;3.03;60.86;102260.63;5060545;28;20790;-68
2021/12/20 05:07:50;;;;;;;11.53;3.40;;;;;;;3.02;60.73;102261.41;5060708;28;20181;-68
2021/12/20 05:10:40;;;;;;;6.30;4.17;;;;;;;3.03;60.79;102254.56;5060761;28;20174;-68
2021/12/20 05:13:05;;;;;;;6.83;3.60;;;;;;;2.98;61.51;102250.81;5059898;28;20459;-67
2021/12/20 05:15:31;;;;;;;8.40;3.60;;;;;;;3.00;61.20;102259.53;5061080;28;20524;-67
2021/12/20 05:17:56;;;;;;;5.60;3.57;;;;;;;3.27;60.64;102254.38;5062569;28;20416;-67
2021/12/20 05:20:22;;;;;;;5.93;3.50;;;;;;;3.02;60.65;102258.84;5061301;28;20426;-69
2021/12/20 05:22:48;;;;;;;6.57;3.23;;;;;;;3.09;60.90;102259.25;5060529;28;20173;-66
2021/12/20 05:25:14;;;;;;;6.23;3.10;;;;;;;2.94;61.12;102260.03;5059584;28;20420;-67
2021/12/20 05:27:39;;;;;;;5.87;3.50;;;;;;;3.27;61.20;102265.56;5060536;28;20408;-67
2021/12/20 05:30:06;;;;;;;5.00;4.10;;;;;;;3.20;61.32;102258.25;5060617;28;20180;-67
2021/12/20 05:32:31;;;;;;;5.83;3.60;;;;;;;3.26;59.99;102255.16;5059224;28;20189;-68
2021/12/20 05:34:57;;;;;;;4.50;3.23;;;;;;;3.21;60.86;102254.88;5060148;28;20468;-68
2021/12/20 05:37:22;;;;;;;6.40;3.80;;;;;;;3.22;60.63;102264.41;5060789;28;20184;-67
2021/12/20 05:39:47;;;;;;;16.33;4.10;;;;;;;3.13;60.64;102268.97;5059914;28;20423;-68
2021/12/20 05:42:13;;;;;;;6.77;3.90;;;;;;;3.13;61.58;102268.97;5060184;28;20173;-68
2021/12/20 05:44:38;;;;;;;7.50;3.80;;;;;;;3.18;61.14;102272.69;5060856;28;20157;-68
2021/12/20 05:47:04;;;;;;;7.70;3.80;;;;;;;3.20;60.46;102273.72;5060197;28;20292;-68
2021/12/20 05:49:31;;;;;;;6.20;3.93;;;;;;;2.90;61.25;102278.66;5060114;28;20176;-68
2021/12/20 05:51:57;;;;;;;6.10;3.47;;;;;;;3.18;60.60;102285.59;5059907;28;20263;-69
2021/12/20 05:54:22;;;;;;;6.20;3.50;;;;;;;2.98;60.79;102281.75;5060012;28;20444;-68
2021/12/20 05:56:48;;;;;;;5.63;3.40;;;;;;;2.88;61.76;102281.91;5059916;28;20220;-68
2021/12/20 05:59:13;;;;;;;4.73;3.50;;;;;;;2.87;61.64;102286.19;5059784;28;20182;-69
2021/12/20 06:01:38;;;;;;;6.60;3.57;;;;;;;3.03;61.94;102282.91;5059766;28;20478;-68
2021/12/20 06:04:04;;;;;;;4.97;3.27;;;;;;;2.90;61.17;102294.09;5060179;28;20181;-67
2021/12/20 06:06:31;;;;;;;6.43;3.67;;;;;;;2.90;61.27;102291.53;5059469;28;20223;-68
2021/12/20 06:08:56;;;;;;;9.73;3.67;;;;;;;2.95;61.11;102296.97;5059571;28;20169;-68
2021/12/20 06:11:22;;;;;;;8.73;3.60;;;;;;;3.23;61.35;102289.34;5060221;28;20508;-67
2021/12/20 06:13:47;;;;;;;5.67;3.80;;;;;;;3.34;60.67;102298.69;5059202;28;20264;-68
2021/12/20 06:16:13;;;;;;;8.80;4.30;;;;;;;3.13;60.96;102289.56;5063427;28;20541;-68
2021/12/20 06:18:38;;;;;;;7.03;3.40;;;;;;;3.03;61.16;102291.56;5063978;28;20446;-69
2021/12/20 06:21:03;;;;;;;9.27;4.37;;;;;;;2.78;61.73;102286.44;5065385;28;20181;-67
2021/12/20 06:23:29;;;;;;;11.97;3.37;;;;;;;3.10;61.35;102291.94;5062025;28;20169;-68
2021/12/20 06:25:54;;;;;;;4.40;3.83;;;;;;;3.03;60.79;102294.13;5060332;28;20172;-69
2021/12/20 06:28:19;;;;;;;6.80;4.20;;;;;;;3.26;61.13;102293.81;5059375;28;20212;-67
2021/12/20 06:30:45;;;;;;;10.73;3.90;;;;;;;3.12;60.26;102298.09;5059144;28;20177;-69
2021/12/20 06:33:10;;;;;;;5.40;3.17;;;;;;;3.09;60.46;102301.34;5059499;28;20165;-68
2021/12/20 06:35:35;;;;;;;6.13;3.60;;;;;;;3.13;61.06;102310.19;5058975;28;20583;-68
2021/12/20 06:38:03;;;;;;;6.67;3.27;;;;;;;3.21;60.61;102311.59;5058867;28;20185;-68
2021/12/20 06:40:31;;;;;;;10.60;4.13;;;;;;;3.02;60.56;102318.09;5060889;28;20176;-67
2021/12/20 06:42:56;;;;;;;8.13;3.83;;;;;;;3.00;60.55;102309.41;5060208;28;20423;-68
2021/12/20 06:45:21;;;;;;;8.83;3.63;;;;;;;2.93;61.07;102301.16;5059220;28;20637;-68
2021/12/20 06:47:47;;;;;;;3.50;3.20;;;;;;;3.12;61.00;102303.25;5059632;28;20186;-67
2021/12/20 06:50:12;;;;;;;7.17;6.43;;;;;;;3.01;60.50;102303.41;5058781;28;20235;-68
2021/12/20 06:52:38;;;;;;;5.87;3.70;;;;;;;2.85;61.40;102296.38;5058465;28;20271;-68
2021/12/20 06:55:03;;;;;;;8.20;3.60;;;;;;;2.84;61.28;102289.44;5058678;28;20273;-67
2021/12/20 06:57:29;;;;;;;9.43;4.03;;;;;;;2.81;61.48;102298.66;5058464;28;20205;-67
2021/12/20 06:59:54;;;;;;;5.50;3.80;;;;;;;3.04;60.72;102295.00;5058558;28;20180;-69
2021/12/20 07:02:19;;;;;;;12.90;3.80;;;;;;;3.12;61.19;102292.94;5058850;28;20169;-68
2021/12/20 07:04:45;;;;;;;7.17;4.17;;;;;;;2.93;62.24;102304.59;5058672;28;20173;-68
2021/12/20 07:07:10;;;;;;;6.53;3.77;;;;;;;2.97;61.81;102314.31;5058492;28;20537;-67
2021/12/20 07:09:35;;;;;;;4.50;4.00;;;;;;;3.00;61.87;102314.53;5058820;28;20174;-68
2021/12/20 07:12:03;;;;;;;7.47;4.20;;;;;;;3.12;61.65;102310.97;5058317;28;20189;-69
2021/12/20 07:14:28;;;;;;;12.17;4.53;;;;;;;3.13;60.50;102313.66;5058519;28;20181;-69
2021/12/20 07:16:54;;;;;;;6.63;3.57;;;;;;;2.84;61.47;102324.59;5059329;28;20410;-68
2021/12/20 07:19:20;;;;;;;7.97;3.77;;;;;;;2.99;62.05;102317.00;5058585;28;20174;-68
2021/12/20 07:21:45;;;;;;;11.70;3.60;;;;;;;3.15;61.10;102318.91;5058355;28;20430;-68
2021/12/20 07:24:10;;;;;;;6.90;4.07;;;;;;;2.79;61.51;102331.16;5058942;28;20173;-68
2021/12/20 07:26:36;;;;;;;4.73;3.10;;;;;;;3.13;61.22;102334.25;5061178;28;20215;-68
2021/12/20 07:29:01;;;;;;;3.73;3.20;;;;;;;3.26;60.90;102335.06;5062077;28;20177;-69
2021/12/20 07:31:27;;;;;;;7.10;3.80;;;;;;;3.18;60.85;102345.78;5058224;28;20515;-68
2021/12/20 07:33:52;;;;;;;5.83;3.60;;;;;;;3.02;61.98;102346.44;5058290;28;20201;-68
2021/12/20 07:36:20;;;;;;;7.53;3.50;;;;;;;2.98;61.05;102351.31;5061067;28;20212;-69
2021/12/20 07:38:46;;;;;;;7.93;4.00;;;;;;;2.90;62.01;102353.34;5066592;28;20170;-68
2021/12/20 07:41:11;;;;;;;6.50;3.80;;;;;;;2.99;61.38;102350.47;5064503;28;20617;-69
2021/12/20 07:43:37;;;;;;;6.23;4.20;;;;;;;2.98;61.67;102349.59;5064101;28;20181;-68
2021/12/20 07:46:02;;;;;;;6.90;4.10;;;;;;;2.88;61.95;102344.63;5063038;28;20180;-67
2021/12/20 07:48:27;;;;;;;5.50;4.33;;;;;;;3.18;61.77;102347.44;5059579;28;20234;-68
2021/12/20 07:50:53;;;;;;;7.23;4.33;;;;;;;3.20;60.95;102351.03;5059082;28;20177;-68
2021/12/20 07:53:18;;;;;;;5.13;3.80;;;;;;;2.83;62.04;102352.06;5058733;28;20231;-68
2021/12/20 07:55:43;;;;;;;12.37;4.33;;;;;;;3.05;61.23;102345.75;5060373;28;20311;-68
2021/12/20 07:58:09;;;;;;;7.33;4.73;;;;;;;3.07;60.90;102356.16;5062282;28;20169;-69
2021/12/20 08:00:35;;;;;;;6.87;4.30;;;;;;;2.91;62.95;102359.38;5066067;28;20170;-67
2021/12/20 08:03:00;;;;;;;12.80;4.40;;;;;;;3.17;61.64;102361.13;5067742;28;20433;-69
2021/12/20 08:05:27;;;;;;;10.60;4.20;;;;;;;3.22;61.35;102362.34;5066415;28;20173;-68
2021/12/20 08:07:53;;;;;;;7.03;4.03;;;;;;;3.17;60.77;102361.13;5063217;28;20173;-68
2021/12/20 08:10:19;;;;;;;10.63;4.50;;;;;;;3.17;61.89;102355.97;5063658;28;20434;-68
2021/12/20 08:12:49;;;;;;;5.40;4.37;;;;;;;3.00;61.50;102358.34;5063693;28;20169;-69
2021/12/20 08:15:15;;;;;;;5.73;4.30;;;;;;;2.96;62.29;102361.47;5062482;28;20457;-69
2021/12/20 08:17:40;;;;;;;8.50;4.23;;;;;;;3.21;61.81;102365.69;5061775;28;20424;-68
2021/12/20 08:20:07;;;;;;;6.50;3.73;;;;;;;3.43;61.27;102362.84;5061876;28;20178;-68
2021/12/20 08:22:33;;;;;;;12.77;4.30;;;;;;;3.54;60.20;102356.69;5061902;28;20181;-68
2021/12/20 08:24:58;;;;;;;11.70;5.50;;;;;;;3.15;62.11;102358.47;5061652;28;20776;-68
2021/12/20 08:27:27;;;;;;;10.03;4.40;;;;;;;3.68;60.55;102361.81;5061648;28;20170;-69
2021/12/20 08:29:52;;;;;;;7.33;4.40;;;;;;;3.52;60.59;102366.00;5062961;28;20161;-70
2021/12/20 08:32:18;;;;;;;5.97;4.07;;;;;;;3.38;60.69;102361.63;5063176;28;20801;-70
2021/12/20 08:34:44;;;;;;;12.10;4.10;;;;;;;3.31;61.21;102365.50;5062484;28;20461;-72
2021/12/20 08:37:10;;;;;;;7.00;4.40;;;;;;;4.19;59.21;102358.19;5063165;28;20166;-70
2021/12/20 08:39:38;;;;;;;5.90;4.60;;;;;;;5.39;55.10;102359.19;5074321;28;20500;-67
2021/12/20 08:42:10;;;;;;;6.63;4.17;;;;;;;6.22;52.95;102351.66;5065711;28;20988;-68
2021/12/20 08:44:36;;;;;;;8.33;4.43;;;;;;;6.55;51.20;102355.16;5081513;28;20411;-68
2021/12/20 08:47:02;;;;;;;9.10;3.97;;;;;;;7.21;49.93;102352.44;5074267;28;20424;-69
2021/12/20 08:49:28;;;;;;;9.00;3.90;;;;;;;8.27;47.38;102350.47;5061327;28;20256;-68
2021/12/20 08:51:54;;;;;;;7.47;3.70;;;;;;;8.28;46.63;102357.44;5060731;28;20463;-68
2021/12/20 08:54:20;;;;;;;8.50;4.00;;;;;;;9.38;44.86;102357.81;5060128;28;20387;-67
2021/12/20 08:56:45;;;;;;;6.30;4.27;;;;;;;9.15;44.78;102364.66;5077094;28;20615;-67
2021/12/20 08:59:11;;;;;;;7.00;3.70;;;;;;;8.38;46.69;102371.72;5080564;28;20177;-68
2021/12/20 09:01:36;;;;;;;7.20;4.07;;;;;;;8.25;46.72;102360.78;5080720;28;20169;-67
2021/12/20 09:04:04;;;;;;;7.03;3.90;;;;;;;8.60;45.93;102368.41;5080932;28;20180;-68
2021/12/20 09:06:29;;;;;;;9.20;4.60;;;;;;;9.40;43.80;102363.97;5078774;28;20165;-68
2021/12/20 09:08:55;;;;;;;7.07;3.90;;;;;;;9.82;42.41;102356.91;5080044;28;20411;-68
2021/12/20 09:11:26;;;;;;;5.10;3.73;;;;;;;9.90;42.07;102358.09;5080891;28;20176;-67
2021/12/20 09:13:52;;;;;;;9.27;4.27;;;;;;;8.75;44.55;102366.47;5063959;28;20448;-67
2021/12/20 09:16:17;;;;;;;6.13;4.23;;;;;;;8.81;45.00;102364.94;5060415;28;20897;-67
2021/12/20 09:18:42;;;;;;;4.60;4.20;;;;;;;9.29;45.22;102367.84;5061954;28;20435;-67
2021/12/20 09:21:10;;;;;;;5.00;4.50;;;;;;;9.08;44.48;102373.94;5067814;28;20174;-68
2021/12/20 09:23:36;;;;;;;6.37;4.10;;;;;;;9.38;44.49;102372.56;5064560;28;20166;-68
2021/12/20 09:26:01;;;;;;;7.17;4.40;;;;;;;9.18;44.13;102376.94;5071174;28;20411;-68
2021/12/20 09:28:26;;;;;;;6.63;4.60;;;;;;;9.50;43.80;102378.25;5061204;28;20416;-70
2021/12/20 09:30:52;;;;;;;7.03;4.60;;;;;;;9.55;43.54;102376.72;5060701;28;20188;-67
2021/12/20 09:33:17;;;;;;;8.43;4.47;;;;;;;8.91;44.64;102372.31;5060616;28;20247;-68
2021/12/20 09:35:42;;;;;;;7.07;5.10;;;;;;;9.47;43.79;102374.63;5060355;28;20513;-68
2021/12/20 09:38:11;;;;;;;9.80;4.73;;;;;;;9.74;43.57;102377.44;5060179;28;20181;-68
2021/12/20 09:40:40;;;;;;;9.53;4.70;;;;;;;10.12;41.81;102370.22;5060729;28;20602;-67
2021/12/20 09:43:11;;;;;;;10.13;6.20;;;;;;;10.06;42.46;102373.47;5059840;28;20864;-68
2021/12/20 09:45:37;;;;;;;6.90;4.63;;;;;;;9.61;44.17;102370.88;5059152;28;20495;-67
2021/12/20 09:48:04;;;;;;;6.50;4.73;;;;;;;9.94;43.63;102383.44;5076833;28;20451;-67
2021/12/20 09:50:29;;;;;;;10.20;4.67;;;;;;;10.30;42.29;102375.25;5079657;28;20208;-67
2021/12/20 09:52:55;;;;;;;8.63;5.03;;;;;;;9.24;43.74;102371.97;5079423;28;20592;-69
2021/12/20 09:55:20;;;;;;;11.33;5.00;;;;;;;10.45;41.77;102369.72;5080221;28;20192;-69
2021/12/20 09:57:48;;;;;;;5.20;4.30;;;;;;;10.32;41.15;102376.16;5079688;28;20164;-70
2021/12/20 10:00:16;;;;;;;6.13;4.23;;;;;;;10.24;41.84;102375.91;5079432;28;20215;-70
2021/12/20 10:02:43;;;;;;;9.20;4.60;;;;;;;10.01;42.73;102375.03;5079869;28;20753;-70
2021/12/20 10:05:12;;;;;;;8.33;4.63;;;;;;;10.22;42.75;102382.75;5079508;28;20430;-70
2021/12/20 10:07:38;;;;;;;7.70;4.77;;;;;;;10.26;42.65;102376.84;5079450;28;20476;-68
2021/12/20 10:10:06;;;;;;;5.77;4.63;;;;;;;9.56;43.30;102382.81;5079910;28;20408;-67
2021/12/20 10:12:31;;;;;;;6.00;4.57;;;;;;;9.76;43.22;102384.47;5078317;28;20480;-69
2021/12/20 10:15:07;;;;;;;6.40;4.80;;;;;;;10.42;42.95;102382.66;5078796;28;20528;-67
2021/12/20 10:17:50;;;;;;;6.37;4.57;;;;;;;11.32;40.44;102389.25;5079058;28;20425;-68
2021/12/20 10:20:22;;;;;;;9.20;4.43;;;;;;;9.82;42.69;102398.59;5072860;28;20788;-66
2021/12/20 10:22:47;;;;;;;6.37;5.33;;;;;;;10.42;43.12;102393.97;5061533;28;20387;-67
2021/12/20 10:25:24;;;;;;;7.33;4.37;;;;;;;10.08;42.93;102407.41;5078402;28;20405;-68
2021/12/20 10:27:51;;;;;;;7.40;4.97;;;;;;;10.14;42.97;102398.97;5072273;28;20440;-68
2021/12/20 10:30:27;;;;;;;9.60;5.27;;;;;;;10.60;42.31;102396.34;5058953;28;20439;-70
2021/12/20 10:32:53;;;;;;;8.03;5.30;;;;;;;10.22;42.62;102400.13;5058456;28;20547;-71
2021/12/20 10:35:33;;;;;;;8.93;4.90;;;;;;;10.61;42.21;102408.56;5058457;28;20519;-69
2021/12/20 10:38:05;;;;;;;6.73;5.00;;;;;;;9.95;42.66;102411.25;5077920;28;20234;-69
2021/12/20 10:40:32;;;;;;;7.93;4.47;;;;;;;9.60;44.18;102405.53;5079060;28;20497;-68
2021/12/20 10:42:59;;;;;;;5.60;4.47;;;;;;;9.66;43.21;102404.88;5078617;28;20498;-70
2021/12/20 10:45:26;;;;;;;5.70;4.30;;;;;;;10.08;42.79;102408.31;5079374;28;20587;-69
2021/12/20 10:47:51;;;;;;;5.97;4.30;;;;;;;10.04;42.66;102409.03;5064788;28;20465;-68
2021/12/20 10:50:29;;;;;;;5.57;4.60;;;;;;;9.52;43.45;102401.75;5058477;28;20399;-69
2021/12/20 10:53:10;;;;;;;4.90;4.00;;;;;;;10.24;43.16;102393.25;5059380;28;20266;-68
2021/12/20 10:55:40;;;;;;;6.13;4.67;;;;;;;10.08;42.90;102395.28;5077933;28;20458;-68
2021/12/20 10:58:28;;;;;;;6.03;4.00;;;;;;;9.87;43.21;102399.66;5078067;28;20415;-68
2021/12/20 11:01:15;;;;;;;5.90;4.63;;;;;;;10.79;41.65;102400.50;5078019;28;20436;-68
2021/12/20 11:03:43;;;;;;;6.77;4.60;;;;;;;10.20;42.71;102396.56;5078043;28;20414;-68
2021/12/20 11:06:24;;;;;;;5.97;4.00;;;;;;;9.95;43.08;102395.63;5078204;28;20407;-68
2021/12/20 11:09:05;;;;;;;5.87;4.83;;;;;;;10.64;43.22;102386.94;5078168;28;20832;-68
2021/12/20 11:11:41;;;;;;;4.70;4.07;;;;;;;10.04;43.44;102403.81;5078332;28;20398;-69
2021/12/20 11:14:08;;;;;;;5.63;4.23;;;;;;;9.97;43.86;102399.16;5078132;28;20419;-66
2021/12/20 11:16:38;;;;;;;6.13;3.90;;;;;;;9.71;43.51;102404.25;5077990;28;20563;-71
2021/12/20 11:19:06;;;;;;;5.13;4.10;;;;;;;9.63;44.04;102404.78;5078262;28;20438;-69
2021/12/20 11:21:31;;;;;;;8.33;4.77;;;;;;;9.99;44.44;102407.06;5078267;28;20677;-69
2021/12/20 11:23:58;;;;;;;5.20;3.70;;;;;;;9.11;44.74;102409.59;5077989;28;20422;-69
2021/12/20 11:26:24;;;;;;;11.13;5.17;;;;;;;9.34;45.02;102402.75;5078024;28;20557;-68
2021/12/20 11:28:51;;;;;;;6.60;4.40;;;;;;;9.71;44.51;102409.44;5061953;28;20430;-69
2021/12/20 11:31:16;;;;;;;7.57;4.33;;;;;;;9.27;44.53;102411.16;5057141;28;20211;-69
2021/12/20 11:33:41;;;;;;;6.03;4.50;;;;;;;9.53;43.76;102408.72;5057776;28;20402;-72
2021/12/20 11:36:07;;;;;;;7.20;4.80;;;;;;;9.15;44.40;102408.91;5058097;28;20554;-68
2021/12/20 11:38:32;;;;;;;10.73;5.00;;;;;;;8.82;45.61;102405.72;5057946;28;20213;-68
2021/12/20 11:41:00;;;;;;;8.63;4.80;;;;;;;9.46;44.69;102399.78;5057904;28;20200;-70
2021/12/20 11:43:25;;;;;;;8.90;4.23;;;;;;;9.44;43.84;102399.72;5058116;28;20534;-70
2021/12/20 11:45:51;;;;;;;7.07;4.90;;;;;;;9.44;45.14;102394.50;5056742;28;20494;-71
2021/12/20 11:48:19;;;;;;;9.13;5.60;;;;;;;9.70;45.40;102389.47;5076635;28;20447;-72